createdAt,value
2022-12-11T00:00:53.215Z,-0.28
2022-12-11T00:05:54.914Z,-0.18
2022-12-11T00:10:58.123Z,-0.15
2022-12-11T00:15:59.991Z,-0.24
2022-12-11T00:21:05.947Z,-0.52
2022-12-11T00:26:14.417Z,-0.21
2022-12-11T00:31:19.061Z,-0.40
2022-12-11T00:36:23.806Z,-0.37
2022-12-11T00:41:25.511Z,-0.42
2022-12-11T00:46:27.219Z,-0.20
2022-12-11T00:51:29.411Z,-0.30
2022-12-11T00:56:31.068Z,-0.23
2022-12-11T01:01:32.861Z,-0.46
2022-12-11T01:06:34.725Z,-0.37
2022-12-11T01:11:36.468Z,-0.58
2022-12-11T01:16:38.295Z,-0.49
2022-12-11T01:21:41.205Z,-0.28
2022-12-11T01:26:42.877Z,-0.32
2022-12-11T01:31:44.583Z,-0.51
2022-12-11T01:36:46.266Z,-0.61
2022-12-11T01:41:47.929Z,-0.55
2022-12-11T01:46:49.612Z,-0.49
2022-12-11T01:51:56.925Z,-0.57
2022-12-11T01:57:03.017Z,-0.51
2022-12-11T02:02:09.411Z,-0.67
2022-12-11T02:07:11.293Z,-0.63
2022-12-11T02:12:28.219Z,-0.58
2022-12-11T02:17:38.626Z,-0.69
2022-12-11T02:22:58.711Z,-0.42
2022-12-11T02:28:32.325Z,-0.65
2022-12-11T02:33:43.981Z,-0.47
2022-12-11T02:38:50.756Z,-0.74
2022-12-11T02:43:55.312Z,-0.72
2022-12-11T02:48:58.067Z,-0.72
2022-12-11T02:54:00.216Z,-1.09
2022-12-11T02:59:08.667Z,-0.96
2022-12-11T03:04:10.363Z,-0.95
2022-12-11T03:09:12.372Z,-0.97
2022-12-11T03:14:14.461Z,-0.69
2022-12-11T03:19:32.001Z,-0.82
2022-12-11T03:24:38.057Z,-0.71
2022-12-11T03:29:48.814Z,-0.64
2022-12-11T03:35:23.004Z,-0.63
2022-12-11T03:40:26.024Z,-0.59
2022-12-11T03:45:29.551Z,-0.69
2022-12-11T03:50:34.599Z,-0.70
2022-12-11T03:55:39.544Z,-0.64
2022-12-11T04:00:41.292Z,-0.91
2022-12-11T04:05:46.222Z,-0.94
2022-12-11T04:10:48.258Z,-0.94
2022-12-11T04:15:49.963Z,-1.09
2022-12-11T04:21:14.938Z,-1.08
2022-12-11T04:26:19.997Z,-1.04
2022-12-11T04:31:22.696Z,-1.07
2022-12-11T04:36:24.742Z,-1.20
2022-12-11T04:41:26.407Z,-1.20
2022-12-11T04:46:28.127Z,-0.84
2022-12-11T04:51:29.984Z,-0.91
2022-12-11T04:56:31.643Z,-1.35
2022-12-11T05:01:33.332Z,-1.39
2022-12-11T05:06:35.003Z,-1.33
2022-12-11T05:11:36.738Z,-1.31
2022-12-11T05:16:38.586Z,-1.50
2022-12-11T05:21:40.339Z,-1.76
2022-12-11T05:26:42.133Z,-1.75
2022-12-11T05:31:43.911Z,-1.72
2022-12-11T05:36:45.591Z,-1.82
2022-12-11T05:41:47.250Z,-1.88
2022-12-11T05:46:49.787Z,-1.94
2022-12-11T05:51:51.815Z,-1.74
2022-12-11T05:56:53.504Z,-1.92
2022-12-11T06:01:55.330Z,-1.92
2022-12-11T06:06:57.039Z,-2.07
2022-12-11T06:11:58.718Z,-2.14
2022-12-11T06:17:01.586Z,-2.21
2022-12-11T06:22:03.269Z,-2.13
2022-12-11T06:27:05.003Z,-2.24
2022-12-11T06:32:07.017Z,-2.41
2022-12-11T06:37:08.695Z,-2.37
2022-12-11T06:42:10.354Z,-2.39
2022-12-11T06:47:12.042Z,-2.29
2022-12-11T06:52:18.196Z,-2.23
2022-12-11T06:57:20.403Z,-2.26
2022-12-11T07:02:22.603Z,-2.36
2022-12-11T07:07:24.379Z,-2.32
2022-12-11T07:12:26.093Z,-2.14
2022-12-11T07:17:29.610Z,-2.11
2022-12-11T07:22:31.547Z,-2.39
2022-12-11T07:27:33.305Z,-2.42
2022-12-11T07:32:34.998Z,-2.25
2022-12-11T07:37:36.711Z,-2.10
2022-12-11T07:42:41.478Z,-2.32
2022-12-11T07:47:47.546Z,-2.32
2022-12-11T07:52:49.219Z,-2.17
2022-12-11T07:57:50.877Z,-2.39
2022-12-11T08:02:52.633Z,-2.14
2022-12-11T08:07:54.443Z,-2.15
2022-12-11T08:12:56.142Z,-1.95
2022-12-11T08:17:57.844Z,-1.85
2022-12-11T08:22:59.552Z,-2.07
2022-12-11T08:28:01.287Z,-1.93
2022-12-11T08:33:03.001Z,-1.95
2022-12-11T08:38:04.730Z,-1.72
2022-12-11T08:43:06.395Z,-1.69
2022-12-11T08:48:08.091Z,-1.58
2022-12-11T08:53:09.747Z,-1.58
2022-12-11T08:58:11.417Z,-1.72
2022-12-11T09:03:13.192Z,-1.51
2022-12-11T09:08:15.121Z,-1.59
2022-12-11T09:13:16.827Z,-1.88
2022-12-11T09:18:18.497Z,-2.10
2022-12-11T09:23:20.164Z,-1.91
2022-12-11T09:28:22.388Z,-1.54
2022-12-11T09:33:24.163Z,-1.71
2022-12-11T09:38:26.639Z,-1.78
2022-12-11T09:43:52.326Z,-1.50
2022-12-11T09:48:54.197Z,-1.69
2022-12-11T09:53:59.871Z,-1.59
2022-12-11T09:59:23.944Z,-1.28
2022-12-11T10:04:47.299Z,-1.21
2022-12-11T10:09:56.975Z,-1.10
2022-12-11T10:15:08.787Z,-1.06
2022-12-11T10:20:17.218Z,-0.71
2022-12-11T10:25:27.330Z,-0.56
2022-12-11T10:30:37.161Z,-1.05
2022-12-11T10:35:58.205Z,-1.31
2022-12-11T10:41:10.331Z,-1.04
2022-12-11T10:46:32.951Z,-1.12
2022-12-11T10:51:36.935Z,-0.80
2022-12-11T10:56:38.748Z,-0.90
2022-12-11T11:01:46.417Z,-1.26
2022-12-11T11:06:49.846Z,-1.04
2022-12-11T11:11:51.602Z,-1.17
2022-12-11T11:16:57.234Z,-1.27
2022-12-11T11:22:05.854Z,-0.93
2022-12-11T11:27:28.176Z,-0.74
2022-12-11T11:32:38.594Z,-0.44
2022-12-11T11:37:44.524Z,-0.34
2022-12-11T11:42:58.485Z,-0.28
2022-12-11T11:48:11.522Z,-0.68
2022-12-11T11:53:37.433Z,-0.64
2022-12-11T11:58:47.008Z,-0.34
2022-12-11T12:03:50.392Z,-0.40
2022-12-11T12:09:03.248Z,-1.22
2022-12-11T12:20:00.841Z,-1.01
2022-12-11T12:25:35.665Z,-0.83
2022-12-11T12:31:14.818Z,-0.90
2022-12-11T12:36:39.203Z,0.36
2022-12-11T12:41:49.920Z,0.01
2022-12-11T12:47:00.170Z,-0.29
2022-12-11T12:52:03.617Z,-0.32
2022-12-11T12:57:05.831Z,1.43
2022-12-11T13:02:16.485Z,3.34
2022-12-11T13:07:27.341Z,1.28
2022-12-11T13:12:40.678Z,0.71
2022-12-11T13:17:42.370Z,0.65
2022-12-11T13:23:10.658Z,0.28
2022-12-11T13:28:47.311Z,-0.25
2022-12-11T13:33:52.129Z,-0.95
2022-12-11T13:38:59.405Z,-1.44
2022-12-11T13:44:01.816Z,-1.67
2022-12-11T13:49:07.203Z,-1.76
2022-12-11T13:54:17.281Z,-1.80
2022-12-11T13:59:53.405Z,-1.99
2022-12-11T14:04:59.320Z,-2.08
2022-12-11T14:10:06.301Z,-2.05
2022-12-11T14:15:14.803Z,-2.22
2022-12-11T14:20:20.630Z,-2.02
2022-12-11T14:25:27.486Z,-2.03
2022-12-11T14:30:33.116Z,-2.33
2022-12-11T14:35:41.681Z,-2.17
2022-12-11T14:40:47.204Z,-2.30
2022-12-11T14:45:54.293Z,-2.26
2022-12-11T14:51:01.233Z,-2.57
2022-12-11T14:56:09.121Z,-2.33
2022-12-11T15:01:23.051Z,-2.34
2022-12-11T15:06:28.527Z,-2.52
2022-12-11T15:11:32.017Z,-2.41
2022-12-11T15:16:37.616Z,-2.47
2022-12-11T15:21:39.360Z,-2.32
2022-12-11T15:26:50.006Z,-2.24
2022-12-11T15:32:01.995Z,-2.08
2022-12-11T15:37:03.744Z,-2.44
2022-12-11T15:42:06.591Z,-2.48
2022-12-11T15:47:15.794Z,-2.40
2022-12-11T15:52:17.524Z,-2.63
2022-12-11T15:57:22.984Z,-2.58
2022-12-11T16:02:26.780Z,-2.53
2022-12-11T16:07:30.846Z,-2.53
2022-12-11T16:12:32.622Z,-2.51
2022-12-11T16:17:34.405Z,-2.62
2022-12-11T16:22:36.286Z,-2.65
2022-12-11T16:27:37.990Z,-2.61
2022-12-11T16:32:39.716Z,-2.60
2022-12-11T16:37:41.402Z,-2.79
2022-12-11T16:42:43.288Z,-2.45
2022-12-11T16:47:45.100Z,-2.57
2022-12-11T16:52:47.423Z,-2.70
2022-12-11T16:57:49.286Z,-2.73
2022-12-11T17:02:51.168Z,-2.72
2022-12-11T17:07:52.902Z,-2.73
2022-12-11T17:12:54.952Z,-2.70
2022-12-11T17:17:56.608Z,-2.73
2022-12-11T17:22:58.257Z,-2.67
2022-12-11T17:28:00.085Z,-2.45
2022-12-11T17:33:02.948Z,-2.56
2022-12-11T17:38:05.017Z,-2.66
2022-12-11T17:43:09.314Z,-2.46
2022-12-11T17:48:12.041Z,-2.61
2022-12-11T17:53:15.516Z,-2.37
2022-12-11T17:58:19.840Z,-2.52
2022-12-11T18:03:22.013Z,-2.56
2022-12-11T18:08:27.219Z,-2.39
2022-12-11T18:13:29.163Z,-2.67
2022-12-11T18:18:31.195Z,-2.75
2022-12-11T18:23:32.926Z,-2.61
2022-12-11T18:28:34.627Z,-2.46
2022-12-11T18:33:38.519Z,-2.34
2022-12-11T18:38:40.620Z,-2.37
2022-12-11T18:43:42.427Z,-2.66
2022-12-11T18:48:45.325Z,-2.65
2022-12-11T18:53:47.029Z,-2.94
2022-12-11T18:58:49.095Z,-2.81
2022-12-11T19:04:00.466Z,-2.83
2022-12-11T19:09:07.048Z,-2.73
2022-12-11T19:14:10.089Z,-2.84
2022-12-11T19:19:18.569Z,-2.67
2022-12-11T19:24:22.319Z,-2.79
2022-12-11T19:29:27.923Z,-2.83
2022-12-11T19:34:29.747Z,-2.73
2022-12-11T19:39:31.477Z,-2.74
2022-12-11T19:44:33.170Z,-2.68
2022-12-11T19:49:34.858Z,-2.78
2022-12-11T19:54:36.873Z,-2.73
2022-12-11T19:59:40.404Z,-2.78
2022-12-11T20:04:43.047Z,-2.85
2022-12-11T20:09:45.163Z,-2.56
2022-12-11T20:14:47.744Z,-2.62
2022-12-11T20:19:49.420Z,-2.68
2022-12-11T20:24:51.289Z,-2.56
2022-12-11T20:29:52.996Z,-2.47
2022-12-11T20:34:56.461Z,-2.39
2022-12-11T20:39:59.510Z,-2.49
2022-12-11T20:45:01.213Z,-2.49
2022-12-11T20:50:03.660Z,-2.74
2022-12-11T20:55:06.333Z,-2.98
2022-12-11T21:00:08.815Z,-2.86
2022-12-11T21:05:11.493Z,-2.81
2022-12-11T21:10:13.654Z,-2.84
2022-12-11T21:15:15.474Z,-2.85
2022-12-11T21:20:17.115Z,-2.88
2022-12-11T21:25:19.220Z,-2.94
2022-12-11T21:30:20.896Z,-2.78
2022-12-11T21:35:22.560Z,-2.81
2022-12-11T21:40:24.286Z,-2.64
2022-12-11T21:50:47.626Z,-2.84
2022-12-11T21:55:49.292Z,-2.81
2022-12-11T22:00:50.991Z,-2.85
2022-12-11T22:05:52.716Z,-2.87
2022-12-11T22:10:56.641Z,-2.93
2022-12-11T22:15:58.330Z,-2.87
2022-12-11T22:21:00.076Z,-2.90
2022-12-11T22:26:01.757Z,-3.02
2022-12-11T22:31:03.474Z,-3.01
2022-12-11T22:36:05.480Z,-2.89
2022-12-11T22:41:21.991Z,-2.94
2022-12-11T22:46:27.388Z,-2.83
2022-12-11T22:51:29.127Z,-2.83
2022-12-11T22:56:31.139Z,-2.97
2022-12-11T23:01:33.032Z,-2.96
2022-12-11T23:06:35.778Z,-3.01
2022-12-11T23:11:40.169Z,-2.94
2022-12-11T23:16:42.583Z,-2.79
2022-12-11T23:21:45.012Z,-2.94
2022-12-11T23:26:48.102Z,-2.85
2022-12-11T23:31:49.764Z,-2.82
2022-12-11T23:36:51.494Z,-2.87
2022-12-11T23:41:53.142Z,-2.86
2022-12-11T23:46:54.811Z,-2.86
2022-12-11T23:51:56.769Z,-2.88
2022-12-11T23:56:58.440Z,-3.00
